Koun Maru — JK5556 — position and weather

sailwx.info

Track history (hours):
 
Tides and Currents Weather Stations Pressure Air Temp Water Temp Dewpoint Dewpoint Depression Visibility Wind Speed Wind Dir Waves Ship Positions

Koun Maru

Last reported at 2015-May-28 05:09 UTC. Time now 2015-May-29 02:18 UTC.
Position N 34°39' E 135°27'.

Length 40 m.

Type: Tanker. MMSI: 431401871.

Date/timePositionNaut miles runAvg speedWind from/ knotsBaromVisibWave heightAir tempDewpointWater temp
2015-May-28 05:09N 34°39' E 135°27'1 0.8
2015-May-28 03:26N 34°40' E 135°27'5 1.2
2015-May-27 23:25N 34°36' E 135°24'4 0.2
2015-May-27 06:31N 34°39' E 135°26'0 0.1
2015-May-27 05:33N 34°39' E 135°26'0 0.2
2015-May-27 04:26N 34°39' E 135°26'0 0.0
2015-May-27 02:27N 34°39' E 135°26'3 3.1
2015-May-27 01:29N 34°36' E 135°25'1 0.2
2015-May-26 22:16N 34°36' E 135°25'3 0.2
2015-May-26 04:03N 34°39' E 135°27'3 0.9
2015-May-26 00:20N 34°36' E 135°24'3 0.1
2015-May-24 10:28N 34°39' E 135°27'1010.5
2015-May-24 09:33N 34°37' E 135°15'1511.8
2015-May-24 08:14N 34°37' E 134°56'  
2015-May-21 09:08N 34°37' E 135°05'6 9.5
2015-May-21 08:33N 34°40' E 135°12'4 4.2
2015-May-21 07:33N 34°42' E 135°15'0 0.0
2015-May-21 06:27N 34°42' E 135°15'0 0.0
2015-May-21 05:21N 34°42' E 135°15'0 0.0
2015-May-21 04:33N 34°42' E 135°15'0 0.0
2015-May-21 03:23N 34°42' E 135°15'0 0.0
2015-May-21 02:33N 34°42' E 135°15'0 0.0
2015-May-21 01:33N 34°42' E 135°15'2 1.5
2015-May-21 00:33N 34°41' E 135°15'0 0.0
2015-May-20 23:27N 34°41' E 135°15'2 2.7
2015-May-20 22:33N 34°41' E 135°12'2 1.5
2015-May-20 21:32N 34°39' E 135°12'0 0.0
2015-May-20 20:28N 34°39' E 135°12'0 0.0
2015-May-20 19:16N 34°39' E 135°12'0 0.0
2015-May-20 18:33N 34°39' E 135°12'0 0.0
2015-May-20 17:28N 34°39' E 135°12'0 0.1
2015-May-20 16:28N 34°39' E 135°12'0 0.0
2015-May-20 15:28N 34°39' E 135°12'0 0.0
2015-May-20 14:33N 34°39' E 135°12'8 7.8
2015-May-20 13:33N 34°36' E 135°03'  
Track history (hours):
 
Tides and Currents Weather Stations Pressure Air Temp Water Temp Dewpoint Dewpoint Depression Visibility Wind Speed Wind Dir Waves Ship Positions

Koun Maru

Last reported at 2015-May-28 05:09 UTC. Time now 2015-May-29 02:18 UTC.
Position N 34°39' E 135°27'.

Length 40 m.

Type: Tanker. MMSI: 431401871.

Date/timePositionNaut miles runAvg speedWind from/ knotsBaromVisibWave heightAir tempDewpointWater temp
2015-May-28 05:09N 34°39' E 135°27'1 0.8
2015-May-28 03:26N 34°40' E 135°27'5 1.2
2015-May-27 23:25N 34°36' E 135°24'4 0.2
2015-May-27 06:31N 34°39' E 135°26'0 0.1
2015-May-27 05:33N 34°39' E 135°26'0 0.2
2015-May-27 04:26N 34°39' E 135°26'0 0.0
2015-May-27 02:27N 34°39' E 135°26'3 3.1
2015-May-27 01:29N 34°36' E 135°25'1 0.2
2015-May-26 22:16N 34°36' E 135°25'3 0.2
2015-May-26 04:03N 34°39' E 135°27'3 0.9
2015-May-26 00:20N 34°36' E 135°24'3 0.1
2015-May-24 10:28N 34°39' E 135°27'1010.5
2015-May-24 09:33N 34°37' E 135°15'1511.8
2015-May-24 08:14N 34°37' E 134°56'  
2015-May-21 09:08N 34°37' E 135°05'6 9.5
2015-May-21 08:33N 34°40' E 135°12'4 4.2
2015-May-21 07:33N 34°42' E 135°15'0 0.0
2015-May-21 06:27N 34°42' E 135°15'0 0.0
2015-May-21 05:21N 34°42' E 135°15'0 0.0
2015-May-21 04:33N 34°42' E 135°15'0 0.0
2015-May-21 03:23N 34°42' E 135°15'0 0.0
2015-May-21 02:33N 34°42' E 135°15'0 0.0
2015-May-21 01:33N 34°42' E 135°15'2 1.5
2015-May-21 00:33N 34°41' E 135°15'0 0.0
2015-May-20 23:27N 34°41' E 135°15'2 2.7
2015-May-20 22:33N 34°41' E 135°12'2 1.5
2015-May-20 21:32N 34°39' E 135°12'0 0.0
2015-May-20 20:28N 34°39' E 135°12'0 0.0
2015-May-20 19:16N 34°39' E 135°12'0 0.0
2015-May-20 18:33N 34°39' E 135°12'0 0.0
2015-May-20 17:28N 34°39' E 135°12'0 0.1
2015-May-20 16:28N 34°39' E 135°12'0 0.0
2015-May-20 15:28N 34°39' E 135°12'0 0.0
2015-May-20 14:33N 34°39' E 135°12'8 7.8
2015-May-20 13:33N 34°36' E 135°03'  

Dump ship's entire track history